Terminal Aerodrome Forecast
Issued by NWS Twin Cities, MN

Home | Current Version | Previous Version | Text Only | Print | Product List | Glossary Off
Versions: 1 2 3 4 5 6 7 8 9 10 11 12 13 14 15 16 17 18

654
FTUS43 KMPX 150413 AAB
TAFEAU
TAF AMD
KEAU 150413Z 1504/1524 24002KT 6SM BR SKC
      TEMPO 1504/1506 4SM BR
     FM151500 20004KT P6SM SCT250=

USA.gov is the U.S. government's official web portal to all federal, state and local government web resources and services.